Inicio METAR Ruta Wind Satelite

Informe Meteorológico

Fecha: 2020/07/02 01:24:47 Local
2020.07.02 06:24 UTC


Estado: VENCIDO
Operación:VFR
Apartado / Los Cedros, Colombia (SKLC) 07-49N 076-42W
2020.07.01 2200 UTC
Wind: Calm:0
Visibility: greater than 7 mile(s):0
Sky conditions: partly cloudy
Temperature: 87 F (31 C)
Heat index: 95.7 F (35.4 C):1
Dew Point: 75 F (24 C)
Relative Humidity: 66%
Pressure (altimeter): 29.75 in. Hg (1007 hPa)
ob: SKLC 012200Z 00000KT 9999 SCT020 31/24 A2975
cycle: 22

SKLC 012100Z 16005KT 9999 SCT025 32/25 A2975
SKLC 012000Z 22005KT 9999 SCT025 32/25 A2976
SKLC 011800Z 19004KT 9999 SCT025 31/25 A2983
SKLC 011600Z 21005KT 9999 SCT020 30/25 A2986
SKLC 011500Z 19006KT 9999 SCT020 29/25 A2987